If you wish to contribute or participate in the discussions about articles you are invited to join SKYbrary as a registered user

 Actions

Nakashibetsu Airport

From SKYbrary Wiki

RJCN
Airport
ICAO: RJCN – IATA: SHB
Summary
Name Nakashibetsu Airport
Region Asia and Pacific
Territory Japan JP.gif
Location Nakashibetsu, Hokkaidō
Serving Nakashibetsu
Elevation 65.227 m <br />214 ft65.227 m <br />
Coordinates 43° 34' 23.76" N, 144° 57' 24.29" E
Runways
Designator Length Width Surface ROPS
8/26 1999 m6,558.399 ft <br /> 46 m150.919 ft <br /> ASP /


METAR
Observation RJCN 230700Z 04008KT 010V080 9999 FEW015 16/13 Q1013
Station Nakashibetsu Airport
Date/Time 23 June 2021 07:00:00
Wind direction 40°
Wind speed 08 kts
Lowest cloud amount few clouds
Temperature 16°C
Dew point 13°C
Humidity 82%
QNH 1013 hPa
Weather condition n/a

Airport located 2 nm3,704 m <br />3.704 km <br />12,152.231 ft <br /> from Nakashibetsu, Hokkaidō, Japan.

Climatology

Humid continental climate (Köppen climate classification Dfb)

Maps

Terrain

Loading map...

Airport Layout

Loading map...


Accidents & Serious Incidents at or in vicinity of RJCN

None on SKYbrary